sensor_id;sensor_type;location;lat;lon;timestamp;P1;durP1;ratioP1;P2;durP2;ratioP2
17614;SDS011;8926;49.720;6.576;2023-05-10T00:02:22;0.80;;;0.80;;
17614;SDS011;8926;49.720;6.576;2023-05-10T00:04:48;1.00;;;0.90;;
17614;SDS011;8926;49.720;6.576;2023-05-10T00:07:13;0.87;;;0.87;;
17614;SDS011;8926;49.720;6.576;2023-05-10T00:09:38;1.20;;;1.20;;
17614;SDS011;8926;49.720;6.576;2023-05-10T00:12:04;1.20;;;1.20;;
17614;SDS011;8926;49.720;6.576;2023-05-10T00:14:29;0.90;;;0.90;;
17614;SDS011;8926;49.720;6.576;2023-05-10T00:16:55;1.20;;;1.07;;
17614;SDS011;8926;49.720;6.576;2023-05-10T00:19:20;1.00;;;1.00;;
17614;SDS011;8926;49.720;6.576;2023-05-10T00:21:45;0.80;;;0.80;;
17614;SDS011;8926;49.720;6.576;2023-05-10T00:24:11;0.80;;;0.80;;
17614;SDS011;8926;49.720;6.576;2023-05-10T00:26:36;0.80;;;0.80;;
17614;SDS011;8926;49.720;6.576;2023-05-10T00:29:01;0.67;;;0.67;;
17614;SDS011;8926;49.720;6.576;2023-05-10T00:31:27;0.50;;;0.50;;
17614;SDS011;8926;49.720;6.576;2023-05-10T00:33:52;0.67;;;0.67;;
17614;SDS011;8926;49.720;6.576;2023-05-10T00:36:17;0.57;;;0.57;;
17614;SDS011;8926;49.720;6.576;2023-05-10T00:38:43;0.40;;;0.40;;
17614;SDS011;8926;49.720;6.576;2023-05-10T00:41:08;0.60;;;0.60;;
17614;SDS011;8926;49.720;6.576;2023-05-10T00:43:33;0.90;;;0.90;;
17614;SDS011;8926;49.720;6.576;2023-05-10T00:45:59;0.70;;;0.70;;
17614;SDS011;8926;49.720;6.576;2023-05-10T00:48:24;1.03;;;1.03;;
17614;SDS011;8926;49.720;6.576;2023-05-10T00:50:50;1.53;;;1.20;;
17614;SDS011;8926;49.720;6.576;2023-05-10T00:53:15;1.53;;;1.20;;
17614;SDS011;8926;49.720;6.576;2023-05-10T00:55:41;1.17;;;1.17;;
17614;SDS011;8926;49.720;6.576;2023-05-10T00:58:06;1.67;;;1.30;;
17614;SDS011;8926;49.720;6.576;2023-05-10T01:00:32;1.53;;;1.43;;
17614;SDS011;8926;49.720;6.576;2023-05-10T01:02:58;1.50;;;1.40;;
17614;SDS011;8926;49.720;6.576;2023-05-10T01:05:23;1.57;;;1.47;;
17614;SDS011;8926;49.720;6.576;2023-05-10T01:07:49;1.73;;;1.63;;
17614;SDS011;8926;49.720;6.576;2023-05-10T01:10:15;1.80;;;1.70;;
17614;SDS011;8926;49.720;6.576;2023-05-10T01:12:40;1.67;;;1.57;;
17614;SDS011;8926;49.720;6.576;2023-05-10T01:15:09;1.50;;;1.40;;
17614;SDS011;8926;49.720;6.576;2023-05-10T01:17:36;1.00;;;1.00;;
17614;SDS011;8926;49.720;6.576;2023-05-10T01:20:04;0.80;;;0.80;;
17614;SDS011;8926;49.720;6.576;2023-05-10T01:33:33;1.07;;;1.00;;
17614;SDS011;8926;49.720;6.576;2023-05-10T01:38:49;0.80;;;0.80;;
17614;SDS011;8926;49.720;6.576;2023-05-10T01:44:04;0.80;;;0.80;;
17614;SDS011;8926;49.720;6.576;2023-05-10T01:46:38;1.00;;;1.00;;
17614;SDS011;8926;49.720;6.576;2023-05-10T01:49:08;0.90;;;0.90;;
17614;SDS011;8926;49.720;6.576;2023-05-10T01:51:39;1.20;;;1.20;;
17614;SDS011;8926;49.720;6.576;2023-05-10T01:54:09;1.20;;;1.20;;
17614;SDS011;8926;49.720;6.576;2023-05-10T01:56:38;1.33;;;1.33;;
17614;SDS011;8926;49.720;6.576;2023-05-10T01:59:06;1.10;;;1.10;;
17614;SDS011;8926;49.720;6.576;2023-05-10T02:01:36;0.90;;;0.90;;
17614;SDS011;8926;49.720;6.576;2023-05-10T02:04:02;1.10;;;1.10;;
17614;SDS011;8926;49.720;6.576;2023-05-10T02:06:28;1.20;;;1.20;;
17614;SDS011;8926;49.720;6.576;2023-05-10T02:08:57;1.13;;;1.07;;
17614;SDS011;8926;49.720;6.576;2023-05-10T02:11:22;1.00;;;1.00;;
17614;SDS011;8926;49.720;6.576;2023-05-10T02:13:50;1.37;;;1.27;;
17614;SDS011;8926;49.720;6.576;2023-05-10T02:16:16;1.10;;;1.10;;
17614;SDS011;8926;49.720;6.576;2023-05-10T02:18:44;0.97;;;0.97;;
17614;SDS011;8926;49.720;6.576;2023-05-10T02:21:10;1.27;;;1.27;;
17614;SDS011;8926;49.720;6.576;2023-05-10T02:23:38;1.13;;;1.13;;
17614;SDS011;8926;49.720;6.576;2023-05-10T02:26:04;1.00;;;1.00;;
17614;SDS011;8926;49.720;6.576;2023-05-10T02:28:31;1.37;;;1.37;;
17614;SDS011;8926;49.720;6.576;2023-05-10T02:30:57;1.40;;;1.30;;
17614;SDS011;8926;49.720;6.576;2023-05-10T02:33:23;0.97;;;0.97;;
17614;SDS011;8926;49.720;6.576;2023-05-10T02:35:50;1.20;;;1.20;;
17614;SDS011;8926;49.720;6.576;2023-05-10T02:38:15;1.30;;;1.30;;
17614;SDS011;8926;49.720;6.576;2023-05-10T02:40:43;1.10;;;1.10;;
17614;SDS011;8926;49.720;6.576;2023-05-10T02:43:11;1.27;;;1.17;;
17614;SDS011;8926;49.720;6.576;2023-05-10T02:45:39;1.00;;;1.00;;
17614;SDS011;8926;49.720;6.576;2023-05-10T02:48:06;2.40;;;0.90;;
17614;SDS011;8926;49.720;6.576;2023-05-10T02:50:33;1.23;;;1.20;;
17614;SDS011;8926;49.720;6.576;2023-05-10T02:53:00;1.67;;;1.40;;
17614;SDS011;8926;49.720;6.576;2023-05-10T02:55:31;1.10;;;1.10;;
17614;SDS011;8926;49.720;6.576;2023-05-10T02:58:00;1.20;;;1.20;;
17614;SDS011;8926;49.720;6.576;2023-05-10T03:00:27;0.90;;;0.90;;
17614;SDS011;8926;49.720;6.576;2023-05-10T03:02:52;1.03;;;1.03;;
17614;SDS011;8926;49.720;6.576;2023-05-10T03:05:19;0.90;;;0.90;;
17614;SDS011;8926;49.720;6.576;2023-05-10T03:07:44;1.30;;;1.30;;
17614;SDS011;8926;49.720;6.576;2023-05-10T03:10:10;1.33;;;1.30;;
17614;SDS011;8926;49.720;6.576;2023-05-10T03:15:32;1.20;;;1.10;;
17614;SDS011;8926;49.720;6.576;2023-05-10T03:18:06;1.30;;;1.30;;
17614;SDS011;8926;49.720;6.576;2023-05-10T03:20:49;1.27;;;1.20;;
17614;SDS011;8926;49.720;6.576;2023-05-10T03:23:21;2.33;;;2.23;;
17614;SDS011;8926;49.720;6.576;2023-05-10T03:25:51;1.60;;;1.50;;
17614;SDS011;8926;49.720;6.576;2023-05-10T03:28:18;1.60;;;1.50;;
17614;SDS011;8926;49.720;6.576;2023-05-10T03:30:45;1.37;;;1.27;;
17614;SDS011;8926;49.720;6.576;2023-05-10T03:33:11;1.20;;;1.20;;
17614;SDS011;8926;49.720;6.576;2023-05-10T03:35:37;1.17;;;1.17;;
17614;SDS011;8926;49.720;6.576;2023-05-10T03:38:03;1.17;;;1.17;;
17614;SDS011;8926;49.720;6.576;2023-05-10T03:40:28;1.63;;;1.60;;
17614;SDS011;8926;49.720;6.576;2023-05-10T03:42:57;1.53;;;1.43;;
17614;SDS011;8926;49.720;6.576;2023-05-10T03:45:23;1.50;;;1.40;;
17614;SDS011;8926;49.720;6.576;2023-05-10T03:47:48;4.13;;;3.73;;
17614;SDS011;8926;49.720;6.576;2023-05-10T03:50:14;2.50;;;2.30;;
17614;SDS011;8926;49.720;6.576;2023-05-10T03:52:39;3.67;;;3.33;;
17614;SDS011;8926;49.720;6.576;2023-05-10T03:55:05;2.70;;;2.50;;
17614;SDS011;8926;49.720;6.576;2023-05-10T03:57:31;2.63;;;2.43;;
17614;SDS011;8926;49.720;6.576;2023-05-10T03:59:56;2.70;;;2.50;;
17614;SDS011;8926;49.720;6.576;2023-05-10T04:02:22;1.40;;;1.30;;
17614;SDS011;8926;49.720;6.576;2023-05-10T04:04:47;1.30;;;1.20;;
17614;SDS011;8926;49.720;6.576;2023-05-10T04:07:13;1.87;;;1.77;;
17614;SDS011;8926;49.720;6.576;2023-05-10T04:09:38;1.23;;;1.13;;
17614;SDS011;8926;49.720;6.576;2023-05-10T04:12:03;2.07;;;1.97;;
17614;SDS011;8926;49.720;6.576;2023-05-10T04:14:29;1.50;;;1.40;;
17614;SDS011;8926;49.720;6.576;2023-05-10T04:16:54;1.07;;;1.07;;
17614;SDS011;8926;49.720;6.576;2023-05-10T04:19:20;1.00;;;1.00;;
17614;SDS011;8926;49.720;6.576;2023-05-10T04:21:45;1.10;;;1.10;;
17614;SDS011;8926;49.720;6.576;2023-05-10T04:24:10;1.80;;;1.70;;
17614;SDS011;8926;49.720;6.576;2023-05-10T04:26:36;1.00;;;1.00;;
17614;SDS011;8926;49.720;6.576;2023-05-10T04:29:01;0.93;;;0.87;;
17614;SDS011;8926;49.720;6.576;2023-05-10T04:31:26;1.40;;;1.30;;
17614;SDS011;8926;49.720;6.576;2023-05-10T04:33:52;1.50;;;1.40;;
17614;SDS011;8926;49.720;6.576;2023-05-10T04:36:17;1.47;;;1.40;;
17614;SDS011;8926;49.720;6.576;2023-05-10T04:38:43;1.50;;;1.40;;
17614;SDS011;8926;49.720;6.576;2023-05-10T04:41:08;1.20;;;1.20;;
17614;SDS011;8926;49.720;6.576;2023-05-10T04:43:36;1.10;;;1.10;;
17614;SDS011;8926;49.720;6.576;2023-05-10T04:46:02;0.90;;;0.90;;
17614;SDS011;8926;49.720;6.576;2023-05-10T04:48:27;1.27;;;1.27;;
17614;SDS011;8926;49.720;6.576;2023-05-10T04:50:53;1.27;;;1.23;;
17614;SDS011;8926;49.720;6.576;2023-05-10T04:53:18;0.90;;;0.90;;
17614;SDS011;8926;49.720;6.576;2023-05-10T04:55:43;1.10;;;1.10;;
17614;SDS011;8926;49.720;6.576;2023-05-10T04:58:09;1.43;;;1.33;;
17614;SDS011;8926;49.720;6.576;2023-05-10T05:00:34;1.00;;;1.00;;
17614;SDS011;8926;49.720;6.576;2023-05-10T05:03:00;1.00;;;1.00;;
17614;SDS011;8926;49.720;6.576;2023-05-10T05:05:25;1.00;;;1.00;;
17614;SDS011;8926;49.720;6.576;2023-05-10T05:07:51;1.00;;;1.00;;
17614;SDS011;8926;49.720;6.576;2023-05-10T05:10:16;1.00;;;1.00;;
17614;SDS011;8926;49.720;6.576;2023-05-10T05:12:41;1.00;;;1.00;;
17614;SDS011;8926;49.720;6.576;2023-05-10T05:15:07;1.03;;;0.93;;
17614;SDS011;8926;49.720;6.576;2023-05-10T05:17:34;1.03;;;0.90;;
17614;SDS011;8926;49.720;6.576;2023-05-10T05:19:59;1.07;;;0.93;;
17614;SDS011;8926;49.720;6.576;2023-05-10T05:22:24;0.83;;;0.80;;
17614;SDS011;8926;49.720;6.576;2023-05-10T05:24:53;1.27;;;0.83;;
17614;SDS011;8926;49.720;6.576;2023-05-10T05:27:19;0.77;;;0.77;;
17614;SDS011;8926;49.720;6.576;2023-05-10T05:29:47;0.80;;;0.80;;
17614;SDS011;8926;49.720;6.576;2023-05-10T05:32:12;0.93;;;0.93;;
17614;SDS011;8926;49.720;6.576;2023-05-10T05:34:38;0.73;;;0.73;;
17614;SDS011;8926;49.720;6.576;2023-05-10T05:37:03;0.70;;;0.40;;
17614;SDS011;8926;49.720;6.576;2023-05-10T05:39:28;0.70;;;0.70;;
17614;SDS011;8926;49.720;6.576;2023-05-10T05:41:54;0.60;;;0.60;;
17614;SDS011;8926;49.720;6.576;2023-05-10T05:44:19;0.90;;;0.90;;
17614;SDS011;8926;49.720;6.576;2023-05-10T05:46:45;1.40;;;1.03;;
17614;SDS011;8926;49.720;6.576;2023-05-10T05:49:10;0.53;;;0.53;;
17614;SDS011;8926;49.720;6.576;2023-05-10T05:51:35;0.80;;;0.80;;
17614;SDS011;8926;49.720;6.576;2023-05-10T05:54:00;0.63;;;0.63;;
17614;SDS011;8926;49.720;6.576;2023-05-10T05:56:26;0.53;;;0.53;;
17614;SDS011;8926;49.720;6.576;2023-05-10T05:58:52;0.60;;;0.60;;
17614;SDS011;8926;49.720;6.576;2023-05-10T06:01:17;0.50;;;0.50;;
17614;SDS011;8926;49.720;6.576;2023-05-10T06:03:42;0.80;;;0.70;;
17614;SDS011;8926;49.720;6.576;2023-05-10T06:06:07;0.50;;;0.50;;
17614;SDS011;8926;49.720;6.576;2023-05-10T06:08:33;0.60;;;0.60;;
17614;SDS011;8926;49.720;6.576;2023-05-10T06:10:59;0.63;;;0.63;;
17614;SDS011;8926;49.720;6.576;2023-05-10T06:13:24;0.63;;;0.63;;
17614;SDS011;8926;49.720;6.576;2023-05-10T06:15:53;0.80;;;0.70;;
17614;SDS011;8926;49.720;6.576;2023-05-10T06:18:19;0.60;;;0.60;;
17614;SDS011;8926;49.720;6.576;2023-05-10T06:20:44;0.50;;;0.50;;
17614;SDS011;8926;49.720;6.576;2023-05-10T06:23:09;0.53;;;0.50;;
17614;SDS011;8926;49.720;6.576;2023-05-10T06:25:34;0.57;;;0.57;;
17614;SDS011;8926;49.720;6.576;2023-05-10T06:28:00;0.70;;;0.70;;
17614;SDS011;8926;49.720;6.576;2023-05-10T06:30:25;0.60;;;0.60;;
17614;SDS011;8926;49.720;6.576;2023-05-10T06:32:53;0.90;;;0.90;;
17614;SDS011;8926;49.720;6.576;2023-05-10T06:35:18;0.93;;;0.93;;
17614;SDS011;8926;49.720;6.576;2023-05-10T06:37:44;0.83;;;0.83;;
17614;SDS011;8926;49.720;6.576;2023-05-10T06:40:09;1.27;;;0.80;;
17614;SDS011;8926;49.720;6.576;2023-05-10T06:42:35;0.70;;;0.70;;
17614;SDS011;8926;49.720;6.576;2023-05-10T06:45:00;1.40;;;0.60;;
17614;SDS011;8926;49.720;6.576;2023-05-10T06:47:25;0.97;;;0.53;;
17614;SDS011;8926;49.720;6.576;2023-05-10T06:49:51;0.70;;;0.70;;
17614;SDS011;8926;49.720;6.576;2023-05-10T06:52:16;0.63;;;0.63;;
17614;SDS011;8926;49.720;6.576;2023-05-10T06:54:41;1.30;;;0.70;;
17614;SDS011;8926;49.720;6.576;2023-05-10T06:57:06;0.77;;;0.77;;
17614;SDS011;8926;49.720;6.576;2023-05-10T06:59:32;1.37;;;0.53;;
17614;SDS011;8926;49.720;6.576;2023-05-10T07:01:57;0.93;;;0.50;;
17614;SDS011;8926;49.720;6.576;2023-05-10T07:04:22;0.50;;;0.50;;
17614;SDS011;8926;49.720;6.576;2023-05-10T07:06:48;0.40;;;0.40;;
17614;SDS011;8926;49.720;6.576;2023-05-10T07:09:14;0.70;;;0.50;;
17614;SDS011;8926;49.720;6.576;2023-05-10T07:11:40;0.77;;;0.40;;
17614;SDS011;8926;49.720;6.576;2023-05-10T07:14:06;1.23;;;0.30;;
17614;SDS011;8926;49.720;6.576;2023-05-10T07:16:32;0.50;;;0.50;;
17614;SDS011;8926;49.720;6.576;2023-05-10T07:18:57;0.60;;;0.60;;
17614;SDS011;8926;49.720;6.576;2023-05-10T07:21:22;0.60;;;0.60;;
17614;SDS011;8926;49.720;6.576;2023-05-10T07:23:53;0.53;;;0.50;;
17614;SDS011;8926;49.720;6.576;2023-05-10T07:26:18;0.40;;;0.37;;
17614;SDS011;8926;49.720;6.576;2023-05-10T07:28:44;0.40;;;0.40;;
17614;SDS011;8926;49.720;6.576;2023-05-10T07:31:09;0.57;;;0.57;;
17614;SDS011;8926;49.720;6.576;2023-05-10T07:33:34;0.87;;;0.50;;
17614;SDS011;8926;49.720;6.576;2023-05-10T07:36:00;0.77;;;0.60;;
17614;SDS011;8926;49.720;6.576;2023-05-10T07:38:25;0.70;;;0.70;;
17614;SDS011;8926;49.720;6.576;2023-05-10T07:40:50;0.60;;;0.60;;
17614;SDS011;8926;49.720;6.576;2023-05-10T07:43:16;0.90;;;0.70;;
17614;SDS011;8926;49.720;6.576;2023-05-10T07:45:41;0.77;;;0.60;;
17614;SDS011;8926;49.720;6.576;2023-05-10T07:48:07;0.90;;;0.40;;
17614;SDS011;8926;49.720;6.576;2023-05-10T07:50:32;0.73;;;0.73;;
17614;SDS011;8926;49.720;6.576;2023-05-10T07:52:57;0.50;;;0.50;;
17614;SDS011;8926;49.720;6.576;2023-05-10T07:55:23;0.60;;;0.60;;
17614;SDS011;8926;49.720;6.576;2023-05-10T07:57:48;0.60;;;0.60;;
17614;SDS011;8926;49.720;6.576;2023-05-10T08:00:16;0.57;;;0.57;;
17614;SDS011;8926;49.720;6.576;2023-05-10T08:02:43;0.77;;;0.60;;
17614;SDS011;8926;49.720;6.576;2023-05-10T08:05:08;0.60;;;0.60;;
17614;SDS011;8926;49.720;6.576;2023-05-10T08:07:34;0.60;;;0.60;;
17614;SDS011;8926;49.720;6.576;2023-05-10T08:09:59;0.40;;;0.40;;
17614;SDS011;8926;49.720;6.576;2023-05-10T08:12:25;3.03;;;0.77;;
17614;SDS011;8926;49.720;6.576;2023-05-10T08:14:50;0.60;;;0.60;;
17614;SDS011;8926;49.720;6.576;2023-05-10T08:17:15;0.80;;;0.70;;
17614;SDS011;8926;49.720;6.576;2023-05-10T08:19:41;0.90;;;0.90;;
17614;SDS011;8926;49.720;6.576;2023-05-10T08:22:06;1.00;;;0.40;;
17614;SDS011;8926;49.720;6.576;2023-05-10T08:24:31;1.40;;;0.57;;
17614;SDS011;8926;49.720;6.576;2023-05-10T08:26:57;0.90;;;0.63;;
17614;SDS011;8926;49.720;6.576;2023-05-10T08:29:22;0.73;;;0.70;;
17614;SDS011;8926;49.720;6.576;2023-05-10T08:31:48;0.70;;;0.70;;
17614;SDS011;8926;49.720;6.576;2023-05-10T08:34:13;0.60;;;0.60;;
17614;SDS011;8926;49.720;6.576;2023-05-10T08:36:38;0.80;;;0.80;;
17614;SDS011;8926;49.720;6.576;2023-05-10T08:39:03;0.67;;;0.67;;
17614;SDS011;8926;49.720;6.576;2023-05-10T08:41:29;1.23;;;0.73;;
17614;SDS011;8926;49.720;6.576;2023-05-10T08:43:58;2.60;;;1.10;;
17614;SDS011;8926;49.720;6.576;2023-05-10T08:46:25;1.03;;;0.97;;
17614;SDS011;8926;49.720;6.576;2023-05-10T08:48:52;0.70;;;0.70;;
17614;SDS011;8926;49.720;6.576;2023-05-10T08:51:21;0.60;;;0.60;;
17614;SDS011;8926;49.720;6.576;2023-05-10T08:53:48;0.60;;;0.60;;
17614;SDS011;8926;49.720;6.576;2023-05-10T08:56:15;0.50;;;0.50;;
17614;SDS011;8926;49.720;6.576;2023-05-10T08:58:41;0.63;;;0.60;;
17614;SDS011;8926;49.720;6.576;2023-05-10T09:01:06;1.10;;;0.80;;
17614;SDS011;8926;49.720;6.576;2023-05-10T09:03:32;0.60;;;0.60;;
17614;SDS011;8926;49.720;6.576;2023-05-10T09:05:57;0.57;;;0.57;;
17614;SDS011;8926;49.720;6.576;2023-05-10T09:08:23;0.60;;;0.60;;
17614;SDS011;8926;49.720;6.576;2023-05-10T09:10:53;1.07;;;0.87;;
17614;SDS011;8926;49.720;6.576;2023-05-10T09:13:21;1.20;;;1.00;;
17614;SDS011;8926;49.720;6.576;2023-05-10T09:15:47;0.90;;;0.90;;
17614;SDS011;8926;49.720;6.576;2023-05-10T09:18:13;0.90;;;0.80;;
17614;SDS011;8926;49.720;6.576;2023-05-10T09:20:39;1.00;;;1.00;;
17614;SDS011;8926;49.720;6.576;2023-05-10T09:23:05;0.90;;;0.90;;
17614;SDS011;8926;49.720;6.576;2023-05-10T09:25:30;0.83;;;0.80;;
17614;SDS011;8926;49.720;6.576;2023-05-10T09:27:58;1.63;;;1.10;;
17614;SDS011;8926;49.720;6.576;2023-05-10T09:30:24;2.13;;;1.27;;
17614;SDS011;8926;49.720;6.576;2023-05-10T09:32:54;1.30;;;1.20;;
17614;SDS011;8926;49.720;6.576;2023-05-10T09:35:21;1.67;;;1.23;;
17614;SDS011;8926;49.720;6.576;2023-05-10T09:37:51;1.20;;;1.20;;
17614;SDS011;8926;49.720;6.576;2023-05-10T09:40:19;1.53;;;1.30;;
17614;SDS011;8926;49.720;6.576;2023-05-10T09:45:25;1.93;;;1.50;;
17614;SDS011;8926;49.720;6.576;2023-05-10T09:47:52;1.67;;;1.53;;
17614;SDS011;8926;49.720;6.576;2023-05-10T09:50:18;3.10;;;1.70;;
17614;SDS011;8926;49.720;6.576;2023-05-10T09:52:57;2.43;;;1.80;;
17614;SDS011;8926;49.720;6.576;2023-05-10T09:55:24;2.17;;;1.80;;
17614;SDS011;8926;49.720;6.576;2023-05-10T09:58:10;3.83;;;1.67;;
17614;SDS011;8926;49.720;6.576;2023-05-10T10:00:38;3.30;;;2.00;;
17614;SDS011;8926;49.720;6.576;2023-05-10T10:03:05;2.33;;;1.70;;
17614;SDS011;8926;49.720;6.576;2023-05-10T10:05:35;2.00;;;1.60;;
17614;SDS011;8926;49.720;6.576;2023-05-10T10:08:04;2.60;;;2.17;;
17614;SDS011;8926;49.720;6.576;2023-05-10T10:10:30;2.80;;;1.97;;
17614;SDS011;8926;49.720;6.576;2023-05-10T10:12:57;1.70;;;1.60;;
17614;SDS011;8926;49.720;6.576;2023-05-10T10:15:23;2.80;;;1.87;;
17614;SDS011;8926;49.720;6.576;2023-05-10T10:17:49;2.23;;;1.80;;
17614;SDS011;8926;49.720;6.576;2023-05-10T10:20:16;2.97;;;2.10;;
17614;SDS011;8926;49.720;6.576;2023-05-10T10:22:41;3.63;;;1.80;;
17614;SDS011;8926;49.720;6.576;2023-05-10T10:25:09;3.17;;;1.90;;
17614;SDS011;8926;49.720;6.576;2023-05-10T10:27:39;2.43;;;1.77;;
17614;SDS011;8926;49.720;6.576;2023-05-10T10:33:10;2.80;;;1.87;;
17614;SDS011;8926;49.720;6.576;2023-05-10T10:35:49;3.20;;;1.63;;
17614;SDS011;8926;49.720;6.576;2023-05-10T10:38:15;1.87;;;1.43;;
17614;SDS011;8926;49.720;6.576;2023-05-10T10:40:41;2.23;;;1.60;;
17614;SDS011;8926;49.720;6.576;2023-05-10T10:43:26;1.40;;;1.30;;
17614;SDS011;8926;49.720;6.576;2023-05-10T10:46:25;2.47;;;1.73;;
17614;SDS011;8926;49.720;6.576;2023-05-10T10:48:49;6.83;;;2.53;;
17614;SDS011;8926;49.720;6.576;2023-05-10T10:51:32;1.30;;;1.20;;
17614;SDS011;8926;49.720;6.576;2023-05-10T10:54:08;2.47;;;1.70;;
17614;SDS011;8926;49.720;6.576;2023-05-10T10:56:35;1.77;;;1.50;;
17614;SDS011;8926;49.720;6.576;2023-05-10T10:59:00;1.50;;;1.10;;
17614;SDS011;8926;49.720;6.576;2023-05-10T11:01:26;2.40;;;1.53;;
17614;SDS011;8926;49.720;6.576;2023-05-10T11:06:30;2.93;;;1.50;;
17614;SDS011;8926;49.720;6.576;2023-05-10T11:08:57;2.67;;;1.60;;
17614;SDS011;8926;49.720;6.576;2023-05-10T11:11:23;2.10;;;1.40;;
17614;SDS011;8926;49.720;6.576;2023-05-10T11:13:48;2.10;;;1.50;;
17614;SDS011;8926;49.720;6.576;2023-05-10T11:16:19;1.93;;;1.60;;
17614;SDS011;8926;49.720;6.576;2023-05-10T11:18:52;2.87;;;1.67;;
17614;SDS011;8926;49.720;6.576;2023-05-10T11:21:32;1.30;;;1.20;;
17614;SDS011;8926;49.720;6.576;2023-05-10T11:23:59;1.20;;;1.10;;
17614;SDS011;8926;49.720;6.576;2023-05-10T11:26:31;1.00;;;1.00;;
17614;SDS011;8926;49.720;6.576;2023-05-10T11:28:57;3.37;;;1.70;;
17614;SDS011;8926;49.720;6.576;2023-05-10T11:31:27;1.30;;;1.20;;
17614;SDS011;8926;49.720;6.576;2023-05-10T11:33:53;0.73;;;0.70;;
17614;SDS011;8926;49.720;6.576;2023-05-10T11:36:23;1.77;;;0.87;;
17614;SDS011;8926;49.720;6.576;2023-05-10T11:38:50;1.33;;;1.20;;
17614;SDS011;8926;49.720;6.576;2023-05-10T11:41:16;2.67;;;0.90;;
17614;SDS011;8926;49.720;6.576;2023-05-10T11:43:43;0.80;;;0.80;;
17614;SDS011;8926;49.720;6.576;2023-05-10T11:46:11;1.00;;;0.80;;
17614;SDS011;8926;49.720;6.576;2023-05-10T11:48:38;1.53;;;0.80;;
17614;SDS011;8926;49.720;6.576;2023-05-10T11:51:04;2.33;;;1.33;;
17614;SDS011;8926;49.720;6.576;2023-05-10T11:53:32;1.00;;;0.90;;
17614;SDS011;8926;49.720;6.576;2023-05-10T11:58:33;1.13;;;0.90;;
17614;SDS011;8926;49.720;6.576;2023-05-10T12:00:59;1.40;;;1.03;;
17614;SDS011;8926;49.720;6.576;2023-05-10T12:03:25;0.90;;;0.80;;
17614;SDS011;8926;49.720;6.576;2023-05-10T12:05:52;1.40;;;1.00;;
17614;SDS011;8926;49.720;6.576;2023-05-10T12:08:20;2.13;;;1.17;;
17614;SDS011;8926;49.720;6.576;2023-05-10T12:10:47;2.50;;;1.20;;
17614;SDS011;8926;49.720;6.576;2023-05-10T12:13:13;1.27;;;0.73;;
17614;SDS011;8926;49.720;6.576;2023-05-10T12:15:39;2.10;;;1.00;;
17614;SDS011;8926;49.720;6.576;2023-05-10T12:18:05;1.37;;;0.90;;
17614;SDS011;8926;49.720;6.576;2023-05-10T12:20:33;3.57;;;1.23;;
17614;SDS011;8926;49.720;6.576;2023-05-10T12:22:58;1.40;;;0.90;;
17614;SDS011;8926;49.720;6.576;2023-05-10T12:25:24;1.43;;;1.00;;
17614;SDS011;8926;49.720;6.576;2023-05-10T12:27:56;1.90;;;0.90;;
17614;SDS011;8926;49.720;6.576;2023-05-10T12:30:27;2.20;;;1.23;;
17614;SDS011;8926;49.720;6.576;2023-05-10T12:32:58;1.07;;;0.80;;
17614;SDS011;8926;49.720;6.576;2023-05-10T12:35:32;1.33;;;0.87;;
17614;SDS011;8926;49.720;6.576;2023-05-10T12:37:58;1.93;;;0.90;;
17614;SDS011;8926;49.720;6.576;2023-05-10T12:40:23;2.00;;;0.93;;
17614;SDS011;8926;49.720;6.576;2023-05-10T12:42:49;2.53;;;0.93;;
17614;SDS011;8926;49.720;6.576;2023-05-10T12:45:15;1.60;;;1.00;;
17614;SDS011;8926;49.720;6.576;2023-05-10T12:47:42;0.83;;;0.70;;
17614;SDS011;8926;49.720;6.576;2023-05-10T12:50:08;0.70;;;0.70;;
17614;SDS011;8926;49.720;6.576;2023-05-10T12:52:33;1.77;;;0.90;;
17614;SDS011;8926;49.720;6.576;2023-05-10T12:54:59;2.73;;;0.90;;
17614;SDS011;8926;49.720;6.576;2023-05-10T12:57:25;2.53;;;0.90;;
17614;SDS011;8926;49.720;6.576;2023-05-10T12:59:50;1.57;;;0.67;;
17614;SDS011;8926;49.720;6.576;2023-05-10T13:02:15;1.53;;;0.70;;
17614;SDS011;8926;49.720;6.576;2023-05-10T13:04:43;1.20;;;0.80;;
17614;SDS011;8926;49.720;6.576;2023-05-10T13:07:09;2.63;;;0.70;;
17614;SDS011;8926;49.720;6.576;2023-05-10T13:09:34;1.20;;;0.80;;
17614;SDS011;8926;49.720;6.576;2023-05-10T13:12:00;0.47;;;0.47;;
17614;SDS011;8926;49.720;6.576;2023-05-10T13:14:25;1.33;;;0.70;;
17614;SDS011;8926;49.720;6.576;2023-05-10T13:16:51;0.63;;;0.50;;
17614;SDS011;8926;49.720;6.576;2023-05-10T13:19:16;0.77;;;0.60;;
17614;SDS011;8926;49.720;6.576;2023-05-10T13:21:42;1.47;;;0.43;;
17614;SDS011;8926;49.720;6.576;2023-05-10T13:24:09;1.10;;;0.50;;
17614;SDS011;8926;49.720;6.576;2023-05-10T13:26:35;0.37;;;0.23;;
17614;SDS011;8926;49.720;6.576;2023-05-10T13:29:01;0.93;;;0.63;;
17614;SDS011;8926;49.720;6.576;2023-05-10T13:31:27;0.93;;;0.60;;
17614;SDS011;8926;49.720;6.576;2023-05-10T13:33:53;1.50;;;1.00;;
17614;SDS011;8926;49.720;6.576;2023-05-10T13:36:18;2.27;;;0.77;;
17614;SDS011;8926;49.720;6.576;2023-05-10T13:38:43;0.60;;;0.40;;
17614;SDS011;8926;49.720;6.576;2023-05-10T13:41:08;1.07;;;0.57;;
17614;SDS011;8926;49.720;6.576;2023-05-10T13:43:34;1.37;;;0.70;;
17614;SDS011;8926;49.720;6.576;2023-05-10T13:46:00;0.80;;;0.60;;
17614;SDS011;8926;49.720;6.576;2023-05-10T13:48:25;0.97;;;0.53;;
17614;SDS011;8926;49.720;6.576;2023-05-10T13:50:50;0.97;;;0.50;;
17614;SDS011;8926;49.720;6.576;2023-05-10T13:53:16;0.63;;;0.47;;
17614;SDS011;8926;49.720;6.576;2023-05-10T13:55:41;1.57;;;0.50;;
17614;SDS011;8926;49.720;6.576;2023-05-10T13:58:06;0.37;;;0.30;;
17614;SDS011;8926;49.720;6.576;2023-05-10T14:00:32;0.23;;;0.20;;
17614;SDS011;8926;49.720;6.576;2023-05-10T14:02:57;1.23;;;0.60;;
17614;SDS011;8926;49.720;6.576;2023-05-10T14:05:22;1.50;;;0.70;;
17614;SDS011;8926;49.720;6.576;2023-05-10T14:07:48;0.43;;;0.40;;
17614;SDS011;8926;49.720;6.576;2023-05-10T14:10:15;0.70;;;0.50;;
17614;SDS011;8926;49.720;6.576;2023-05-10T14:12:40;0.47;;;0.47;;
17614;SDS011;8926;49.720;6.576;2023-05-10T14:15:05;1.17;;;0.73;;
17614;SDS011;8926;49.720;6.576;2023-05-10T14:17:31;0.97;;;0.60;;
17614;SDS011;8926;49.720;6.576;2023-05-10T14:19:56;1.27;;;0.30;;
17614;SDS011;8926;49.720;6.576;2023-05-10T14:22:22;0.47;;;0.47;;
17614;SDS011;8926;49.720;6.576;2023-05-10T14:24:47;1.07;;;0.47;;
17614;SDS011;8926;49.720;6.576;2023-05-10T14:27:13;0.40;;;0.37;;
17614;SDS011;8926;49.720;6.576;2023-05-10T14:29:39;1.40;;;0.30;;
17614;SDS011;8926;49.720;6.576;2023-05-10T14:32:04;0.67;;;0.30;;
17614;SDS011;8926;49.720;6.576;2023-05-10T14:34:29;0.40;;;0.27;;
17614;SDS011;8926;49.720;6.576;2023-05-10T14:36:55;0.40;;;0.30;;
17614;SDS011;8926;49.720;6.576;2023-05-10T14:39:20;0.23;;;0.23;;
17614;SDS011;8926;49.720;6.576;2023-05-10T14:41:46;0.60;;;0.50;;
17614;SDS011;8926;49.720;6.576;2023-05-10T14:44:12;0.57;;;0.47;;
17614;SDS011;8926;49.720;6.576;2023-05-10T14:46:37;0.50;;;0.40;;
17614;SDS011;8926;49.720;6.576;2023-05-10T14:49:03;0.40;;;0.37;;
17614;SDS011;8926;49.720;6.576;2023-05-10T14:51:28;0.80;;;0.47;;
17614;SDS011;8926;49.720;6.576;2023-05-10T14:53:53;1.43;;;0.63;;
17614;SDS011;8926;49.720;6.576;2023-05-10T14:56:19;0.57;;;0.50;;
17614;SDS011;8926;49.720;6.576;2023-05-10T14:58:45;1.37;;;0.50;;
17614;SDS011;8926;49.720;6.576;2023-05-10T15:01:10;0.97;;;0.47;;
17614;SDS011;8926;49.720;6.576;2023-05-10T15:03:36;2.30;;;0.80;;
17614;SDS011;8926;49.720;6.576;2023-05-10T15:06:01;0.63;;;0.53;;
17614;SDS011;8926;49.720;6.576;2023-05-10T15:08:26;1.43;;;0.60;;
17614;SDS011;8926;49.720;6.576;2023-05-10T15:10:52;1.83;;;0.50;;
17614;SDS011;8926;49.720;6.576;2023-05-10T15:13:20;0.80;;;0.60;;
17614;SDS011;8926;49.720;6.576;2023-05-10T15:15:45;0.77;;;0.70;;
17614;SDS011;8926;49.720;6.576;2023-05-10T15:18:10;1.33;;;0.60;;
17614;SDS011;8926;49.720;6.576;2023-05-10T15:20:36;0.83;;;0.40;;
17614;SDS011;8926;49.720;6.576;2023-05-10T15:23:01;0.60;;;0.60;;
17614;SDS011;8926;49.720;6.576;2023-05-10T15:25:27;0.83;;;0.50;;
17614;SDS011;8926;49.720;6.576;2023-05-10T15:27:53;1.23;;;0.50;;